AAL284 KCLT-KDCA
Flight info
| Callsign | AAL284 |
|---|---|
| Flight time | 0h 56m |
| Altitude | 29000 |
| Route | KILNS5 AUDII WAVES CAPSS4 |
| Aircraft | A320/M-SDE3FGHIRWY/LB1 |
Departure
| Time | 2026-05-04 22:56 |
|---|---|
| Airport | Charlotte Douglas International Airport (KCLT) |
Arrival
| Time | 2026-05-04 23:52 |
|---|---|
| Airport | Ronald Reagan Washington National Airport (KDCA) |
| Time | Latitude | Longitude | Altitude | Speed | Heading |
|---|---|---|---|---|---|
| 2026-05-04 22:29 | 35.22011 | -80.93970 | 726 ft | 0 kts | 344° |
| 2026-05-04 22:49 | 35.21988 | -80.93960 | 727 ft | 4 kts | 332° |
| 2026-05-04 22:49 | 35.21966 | -80.93942 | 724 ft | 4 kts | 319° |
| 2026-05-04 22:49 | 35.21947 | -80.93919 | 724 ft | 4 kts | 307° |
| 2026-05-04 22:50 | 35.21932 | -80.93892 | 725 ft | 4 kts | 298° |
| 2026-05-04 22:50 | 35.21931 | -80.93890 | 725 ft | 0 kts | 297° |
| 2026-05-04 22:51 | 35.21940 | -80.93890 | 726 ft | 3 kts | 5° |
| 2026-05-04 22:52 | 35.21984 | -80.93828 | 727 ft | 10 kts | 46° |
| 2026-05-04 22:52 | 35.21999 | -80.93810 | 727 ft | 0 kts | 40° |
| 2026-05-04 22:53 | 35.22002 | -80.93807 | 728 ft | 3 kts | 38° |
| 2026-05-04 22:53 | 35.22098 | -80.93803 | 728 ft | 17 kts | 356° |
| 2026-05-04 22:53 | 35.22193 | -80.93768 | 730 ft | 13 kts | 83° |
| 2026-05-04 22:53 | 35.22281 | -80.93732 | 729 ft | 24 kts | 353° |
| 2026-05-04 22:54 | 35.22429 | -80.93746 | 731 ft | 7 kts | 355° |
| 2026-05-04 22:54 | 35.22483 | -80.93750 | 731 ft | 8 kts | 0° |
| 2026-05-04 22:54 | 35.22507 | -80.93703 | 732 ft | 9 kts | 86° |
| 2026-05-04 22:54 | 35.22454 | -80.93612 | 730 ft | 18 kts | 170° |
| 2026-05-04 22:55 | 35.22279 | -80.93599 | 733 ft | 50 kts | 176° |
| 2026-05-04 22:55 | 35.21712 | -80.93550 | 724 ft | 110 kts | 176° |
| 2026-05-04 22:55 | 35.20787 | -80.93475 | 725 ft | 154 kts | 176° |
| 2026-05-04 22:55 | 35.19720 | -80.93396 | 1248 ft | 154 kts | 176° |
| 2026-05-04 22:56 | 35.18633 | -80.93349 | 1844 ft | 155 kts | 179° |
| 2026-05-04 22:56 | 35.17561 | -80.93339 | 2481 ft | 157 kts | 178° |
| 2026-05-04 22:56 | 35.16396 | -80.93315 | 2785 ft | 176 kts | 177° |
| 2026-05-04 22:56 | 35.15103 | -80.93289 | 3097 ft | 197 kts | 184° |
| 2026-05-04 22:57 | 35.13654 | -80.93091 | 3409 ft | 224 kts | 161° |
| 2026-05-04 22:57 | 35.12351 | -80.91884 | 3793 ft | 255 kts | 126° |
| 2026-05-04 22:57 | 35.11853 | -80.89743 | 4446 ft | 275 kts | 88° |
| 2026-05-04 22:57 | 35.12274 | -80.87435 | 5269 ft | 283 kts | 70° |
| 2026-05-04 22:58 | 35.13094 | -80.85221 | 6140 ft | 288 kts | 61° |
| 2026-05-04 22:58 | 35.14062 | -80.83057 | 6983 ft | 292 kts | 59° |
| 2026-05-04 22:58 | 35.15063 | -80.80881 | 7826 ft | 296 kts | 60° |
| 2026-05-04 22:58 | 35.16052 | -80.78657 | 8623 ft | 301 kts | 60° |
| 2026-05-04 22:59 | 35.17023 | -80.76368 | 9446 ft | 305 kts | 62° |
| 2026-05-04 22:59 | 35.17975 | -80.74028 | 10190 ft | 312 kts | 62° |
| 2026-05-04 22:59 | 35.18957 | -80.71546 | 10443 ft | 336 kts | 63° |
| 2026-05-04 22:59 | 35.19987 | -80.68903 | 10731 ft | 356 kts | 63° |
| 2026-05-04 23:00 | 35.21076 | -80.66091 | 11080 ft | 371 kts | 63° |
| 2026-05-04 23:00 | 35.22188 | -80.63212 | 11726 ft | 376 kts | 63° |
| 2026-05-04 23:00 | 35.23307 | -80.60303 | 12382 ft | 380 kts | 63° |
| 2026-05-04 23:00 | 35.24441 | -80.57360 | 13081 ft | 384 kts | 63° |
| 2026-05-04 23:01 | 35.25584 | -80.54399 | 13759 ft | 387 kts | 62° |
| 2026-05-04 23:01 | 35.26741 | -80.51403 | 14401 ft | 390 kts | 62° |
| 2026-05-04 23:01 | 35.27903 | -80.48391 | 15005 ft | 393 kts | 62° |
| 2026-05-04 23:01 | 35.29076 | -80.45353 | 15597 ft | 396 kts | 62° |
| 2026-05-04 23:02 | 35.30260 | -80.42292 | 16184 ft | 399 kts | 62° |
| 2026-05-04 23:02 | 35.31457 | -80.39202 | 16785 ft | 403 kts | 62° |
| 2026-05-04 23:02 | 35.32646 | -80.36128 | 17387 ft | 406 kts | 62° |
| 2026-05-04 23:02 | 35.33858 | -80.32981 | 18006 ft | 410 kts | 62° |
| 2026-05-04 23:03 | 35.35078 | -80.29805 | 18592 ft | 414 kts | 62° |
| 2026-05-04 23:03 | 35.36306 | -80.26599 | 19147 ft | 418 kts | 62° |
| 2026-05-04 23:03 | 35.37545 | -80.23357 | 19677 ft | 422 kts | 62° |
| 2026-05-04 23:03 | 35.38798 | -80.20084 | 20232 ft | 426 kts | 62° |
| 2026-05-04 23:04 | 35.40064 | -80.16777 | 20749 ft | 430 kts | 62° |
| 2026-05-04 23:04 | 35.41339 | -80.13445 | 21258 ft | 433 kts | 62° |
| 2026-05-04 23:04 | 35.42627 | -80.10083 | 21743 ft | 437 kts | 62° |
| 2026-05-04 23:04 | 35.43483 | -80.07846 | 22052 ft | 439 kts | 62° |
| 2026-05-04 23:05 | 35.44785 | -80.04430 | 22518 ft | 443 kts | 62° |
| 2026-05-04 23:05 | 35.46095 | -80.00990 | 22965 ft | 446 kts | 62° |
| 2026-05-04 23:05 | 35.47412 | -79.97533 | 23401 ft | 450 kts | 62° |
| 2026-05-04 23:05 | 35.48742 | -79.94033 | 23775 ft | 453 kts | 62° |
| 2026-05-04 23:06 | 35.50075 | -79.90522 | 24139 ft | 456 kts | 62° |
| 2026-05-04 23:06 | 35.51421 | -79.86974 | 24498 ft | 459 kts | 62° |
| 2026-05-04 23:06 | 35.52770 | -79.83410 | 24847 ft | 462 kts | 62° |
| 2026-05-04 23:06 | 35.54086 | -79.79801 | 25189 ft | 465 kts | 64° |
| 2026-05-04 23:07 | 35.55295 | -79.76150 | 25533 ft | 468 kts | 66° |
| 2026-05-04 23:07 | 35.56463 | -79.72353 | 25889 ft | 471 kts | 67° |
| 2026-05-04 23:07 | 35.57588 | -79.68559 | 26221 ft | 474 kts | 67° |
| 2026-05-04 23:07 | 35.58700 | -79.64792 | 26550 ft | 477 kts | 67° |
| 2026-05-04 23:08 | 35.59848 | -79.60960 | 26881 ft | 479 kts | 66° |
| 2026-05-04 23:08 | 35.61025 | -79.57114 | 27213 ft | 482 kts | 66° |
| 2026-05-04 23:08 | 35.62222 | -79.53260 | 27535 ft | 484 kts | 66° |
| 2026-05-04 23:08 | 35.63435 | -79.49384 | 27852 ft | 487 kts | 66° |
| 2026-05-04 23:09 | 35.64655 | -79.45487 | 28171 ft | 490 kts | 66° |
| 2026-05-04 23:09 | 35.65879 | -79.41566 | 28459 ft | 492 kts | 66° |
| 2026-05-04 23:09 | 35.67101 | -79.37625 | 28769 ft | 495 kts | 66° |
| 2026-05-04 23:09 | 35.68328 | -79.33663 | 28987 ft | 496 kts | 65° |
| 2026-05-04 23:10 | 35.71801 | -79.26443 | 29014 ft | 487 kts | 45° |
| 2026-05-04 23:10 | 35.76803 | -79.21010 | 29038 ft | 478 kts | 31° |
| 2026-05-04 23:11 | 35.82141 | -79.16142 | 29015 ft | 477 kts | 32° |
| 2026-05-04 23:11 | 35.84726 | -79.13763 | 29006 ft | 466 kts | 32° |
| 2026-05-04 23:11 | 35.87313 | -79.11378 | 29004 ft | 463 kts | 32° |
| 2026-05-04 23:12 | 35.92463 | -79.06638 | 29007 ft | 461 kts | 31° |
| 2026-05-04 23:12 | 35.97618 | -79.01902 | 29014 ft | 462 kts | 31° |
| 2026-05-04 23:13 | 36.02774 | -78.97155 | 29005 ft | 462 kts | 31° |
| 2026-05-04 23:13 | 36.07892 | -78.92432 | 29008 ft | 462 kts | 31° |
| 2026-05-04 23:14 | 36.13040 | -78.87670 | 29011 ft | 462 kts | 31° |
| 2026-05-04 23:14 | 36.18193 | -78.82896 | 29028 ft | 462 kts | 32° |
| 2026-05-04 23:15 | 36.23319 | -78.78090 | 29026 ft | 462 kts | 32° |
| 2026-05-04 23:15 | 36.28378 | -78.73198 | 29004 ft | 460 kts | 33° |
| 2026-05-04 23:16 | 36.33408 | -78.68300 | 29013 ft | 460 kts | 33° |
| 2026-05-04 23:16 | 36.38480 | -78.63401 | 29008 ft | 463 kts | 32° |
| 2026-05-04 23:17 | 36.43569 | -78.58501 | 29008 ft | 463 kts | 32° |
| 2026-05-04 23:17 | 36.48638 | -78.53591 | 29005 ft | 461 kts | 33° |
| 2026-05-04 23:18 | 36.53681 | -78.48683 | 29002 ft | 460 kts | 33° |
| 2026-05-04 23:18 | 36.58694 | -78.43809 | 28986 ft | 460 kts | 33° |
| 2026-05-04 23:19 | 36.63774 | -78.38868 | 28989 ft | 460 kts | 33° |
| 2026-05-04 23:19 | 36.68773 | -78.33998 | 28984 ft | 457 kts | 33° |
| 2026-05-04 23:20 | 36.73761 | -78.29112 | 28987 ft | 454 kts | 33° |
| 2026-05-04 23:20 | 36.78735 | -78.24231 | 29031 ft | 455 kts | 33° |
| 2026-05-04 23:21 | 36.83721 | -78.19348 | 29030 ft | 460 kts | 33° |
| 2026-05-04 23:21 | 36.88871 | -78.14316 | 29035 ft | 478 kts | 33° |
| 2026-05-04 23:22 | 36.94113 | -78.09157 | 28981 ft | 480 kts | 34° |
| 2026-05-04 23:22 | 36.99352 | -78.03967 | 28980 ft | 480 kts | 34° |
| 2026-05-04 23:23 | 37.04555 | -77.98823 | 28980 ft | 480 kts | 34° |
| 2026-05-04 23:23 | 37.09794 | -77.93647 | 28976 ft | 480 kts | 33° |
| 2026-05-04 23:24 | 37.15040 | -77.88445 | 28966 ft | 481 kts | 34° |
| 2026-05-04 23:24 | 37.20299 | -77.83213 | 28957 ft | 482 kts | 34° |
| 2026-05-04 23:25 | 37.22937 | -77.80590 | 28661 ft | 480 kts | 34° |
| 2026-05-04 23:25 | 37.25513 | -77.78017 | 28387 ft | 470 kts | 34° |
| 2026-05-04 23:25 | 37.28059 | -77.75479 | 28108 ft | 466 kts | 34° |
| 2026-05-04 23:25 | 37.30598 | -77.72953 | 27838 ft | 463 kts | 34° |
| 2026-05-04 23:26 | 37.33116 | -77.70449 | 27581 ft | 461 kts | 34° |
| 2026-05-04 23:26 | 37.35627 | -77.67951 | 27317 ft | 459 kts | 34° |
| 2026-05-04 23:26 | 37.38081 | -77.65502 | 26761 ft | 455 kts | 34° |
| 2026-05-04 23:26 | 37.40548 | -77.63035 | 26088 ft | 451 kts | 34° |
| 2026-05-04 23:27 | 37.42993 | -77.60584 | 25426 ft | 448 kts | 34° |
| 2026-05-04 23:27 | 37.45422 | -77.58141 | 24772 ft | 446 kts | 34° |
| 2026-05-04 23:27 | 37.47838 | -77.55708 | 24112 ft | 444 kts | 34° |
| 2026-05-04 23:27 | 37.50244 | -77.53291 | 23438 ft | 442 kts | 34° |
| 2026-05-04 23:28 | 37.52635 | -77.50886 | 22760 ft | 438 kts | 34° |
| 2026-05-04 23:28 | 37.55005 | -77.48494 | 22133 ft | 433 kts | 34° |
| 2026-05-04 23:28 | 37.57349 | -77.46274 | 21753 ft | 409 kts | 26° |
| 2026-05-04 23:28 | 37.59796 | -77.44683 | 21445 ft | 389 kts | 16° |
| 2026-05-04 23:29 | 37.62353 | -77.43649 | 21196 ft | 383 kts | 8° |
| 2026-05-04 23:29 | 37.64940 | -77.42862 | 20945 ft | 381 kts | 8° |
| 2026-05-04 23:29 | 37.67516 | -77.42074 | 20672 ft | 380 kts | 8° |
| 2026-05-04 23:29 | 37.70078 | -77.41285 | 20298 ft | 378 kts | 8° |
| 2026-05-04 23:30 | 37.72630 | -77.40492 | 19927 ft | 376 kts | 8° |
| 2026-05-04 23:30 | 37.75168 | -77.39703 | 19552 ft | 374 kts | 8° |
| 2026-05-04 23:30 | 37.77687 | -77.38923 | 19188 ft | 371 kts | 8° |
| 2026-05-04 23:30 | 37.80190 | -77.38149 | 18824 ft | 369 kts | 8° |
| 2026-05-04 23:31 | 37.82676 | -77.37379 | 18463 ft | 367 kts | 8° |
| 2026-05-04 23:31 | 37.85128 | -77.36624 | 18082 ft | 366 kts | 8° |
| 2026-05-04 23:31 | 37.87591 | -77.35863 | 17710 ft | 363 kts | 8° |
| 2026-05-04 23:31 | 37.90041 | -77.35104 | 17352 ft | 361 kts | 8° |
| 2026-05-04 23:32 | 37.92475 | -77.34351 | 16993 ft | 359 kts | 8° |
| 2026-05-04 23:32 | 37.94893 | -77.33609 | 16641 ft | 356 kts | 8° |
| 2026-05-04 23:32 | 37.97295 | -77.32871 | 16286 ft | 354 kts | 8° |
| 2026-05-04 23:32 | 37.99689 | -77.32135 | 15923 ft | 353 kts | 8° |
| 2026-05-04 23:33 | 38.02068 | -77.31403 | 15591 ft | 350 kts | 8° |
| 2026-05-04 23:33 | 38.04432 | -77.30675 | 15324 ft | 349 kts | 8° |
| 2026-05-04 23:33 | 38.06791 | -77.29951 | 14983 ft | 347 kts | 8° |
| 2026-05-04 23:33 | 38.09128 | -77.29232 | 14643 ft | 345 kts | 8° |
| 2026-05-04 23:34 | 38.11451 | -77.28506 | 14301 ft | 343 kts | 8° |
| 2026-05-04 23:34 | 38.13760 | -77.27779 | 13970 ft | 340 kts | 8° |
| 2026-05-04 23:34 | 38.16050 | -77.27057 | 13620 ft | 338 kts | 8° |
| 2026-05-04 23:34 | 38.18328 | -77.26336 | 13272 ft | 336 kts | 8° |
| 2026-05-04 23:35 | 38.20587 | -77.25615 | 12952 ft | 335 kts | 9° |
| 2026-05-04 23:35 | 38.22838 | -77.24824 | 12691 ft | 335 kts | 10° |
| 2026-05-04 23:35 | 38.25050 | -77.23986 | 12431 ft | 335 kts | 11° |
| 2026-05-04 23:35 | 38.27271 | -77.23118 | 12169 ft | 334 kts | 11° |
| 2026-05-04 23:36 | 38.29487 | -77.22248 | 11903 ft | 333 kts | 12° |
| 2026-05-04 23:36 | 38.31702 | -77.21391 | 11636 ft | 333 kts | 11° |
| 2026-05-04 23:36 | 38.33917 | -77.20542 | 11387 ft | 331 kts | 12° |
| 2026-05-04 23:36 | 38.36121 | -77.19702 | 11128 ft | 330 kts | 11° |
| 2026-05-04 23:37 | 38.38318 | -77.18865 | 10935 ft | 328 kts | 11° |
| 2026-05-04 23:37 | 38.40508 | -77.18025 | 10857 ft | 329 kts | 11° |
| 2026-05-04 23:37 | 38.42699 | -77.17183 | 10763 ft | 330 kts | 12° |
| 2026-05-04 23:37 | 38.44897 | -77.16332 | 10649 ft | 330 kts | 12° |
| 2026-05-04 23:38 | 38.47093 | -77.15482 | 10545 ft | 330 kts | 11° |
| 2026-05-04 23:38 | 38.49300 | -77.14632 | 10435 ft | 330 kts | 12° |
| 2026-05-04 23:38 | 38.51486 | -77.13785 | 10317 ft | 323 kts | 12° |
| 2026-05-04 23:38 | 38.53561 | -77.12968 | 10099 ft | 302 kts | 12° |
| 2026-05-04 23:39 | 38.55540 | -77.12192 | 9787 ft | 292 kts | 11° |
| 2026-05-04 23:39 | 38.57465 | -77.11444 | 9994 ft | 291 kts | 11° |
| 2026-05-04 23:39 | 38.59422 | -77.10696 | 9760 ft | 295 kts | 11° |
| 2026-05-04 23:39 | 38.61382 | -77.09950 | 9434 ft | 293 kts | 11° |
| 2026-05-04 23:40 | 38.63329 | -77.09205 | 9134 ft | 292 kts | 11° |
| 2026-05-04 23:40 | 38.65277 | -77.08460 | 8839 ft | 293 kts | 12° |
| 2026-05-04 23:40 | 38.67236 | -77.07710 | 8545 ft | 294 kts | 12° |
| 2026-05-04 23:40 | 38.69212 | -77.07091 | 8208 ft | 290 kts | 2° |
| 2026-05-04 23:41 | 38.71217 | -77.06872 | 7913 ft | 289 kts | 360° |
| 2026-05-04 23:41 | 38.73197 | -77.06676 | 7623 ft | 289 kts | 0° |
| 2026-05-04 23:41 | 38.75201 | -77.06580 | 7321 ft | 286 kts | 351° |
| 2026-05-04 23:41 | 38.77124 | -77.07082 | 7051 ft | 280 kts | 335° |
| 2026-05-04 23:42 | 38.78846 | -77.08175 | 6771 ft | 275 kts | 322° |
| 2026-05-04 23:42 | 38.80458 | -77.09506 | 6490 ft | 276 kts | 322° |
| 2026-05-04 23:42 | 38.82076 | -77.10840 | 6203 ft | 276 kts | 322° |
| 2026-05-04 23:42 | 38.83619 | -77.12275 | 5881 ft | 272 kts | 313° |
| 2026-05-04 23:43 | 38.84999 | -77.13973 | 5299 ft | 280 kts | 311° |
| 2026-05-04 23:43 | 38.86412 | -77.15739 | 4727 ft | 287 kts | 311° |
| 2026-05-04 23:43 | 38.87831 | -77.17511 | 4147 ft | 282 kts | 311° |
| 2026-05-04 23:43 | 38.89231 | -77.19254 | 3571 ft | 278 kts | 311° |
| 2026-05-04 23:44 | 38.90612 | -77.20975 | 3000 ft | 275 kts | 311° |
| 2026-05-04 23:44 | 38.91951 | -77.22639 | 2741 ft | 259 kts | 311° |
| 2026-05-04 23:44 | 38.93192 | -77.24173 | 2694 ft | 235 kts | 311° |
| 2026-05-04 23:44 | 38.94315 | -77.25544 | 2694 ft | 210 kts | 310° |
| 2026-05-04 23:45 | 38.95347 | -77.26803 | 2710 ft | 202 kts | 310° |
| 2026-05-04 23:45 | 38.96360 | -77.28047 | 2713 ft | 200 kts | 311° |
| 2026-05-04 23:45 | 38.97574 | -77.28946 | 2705 ft | 207 kts | 342° |
| 2026-05-04 23:45 | 38.99018 | -77.28903 | 2709 ft | 214 kts | 18° |
| 2026-05-04 23:46 | 39.00223 | -77.27819 | 2707 ft | 214 kts | 57° |
| 2026-05-04 23:46 | 39.00748 | -77.26094 | 2702 ft | 206 kts | 93° |
| 2026-05-04 23:46 | 39.00503 | -77.24376 | 2723 ft | 194 kts | 124° |
| 2026-05-04 23:46 | 38.99838 | -77.22857 | 2717 ft | 193 kts | 127° |
| 2026-05-04 23:47 | 38.99171 | -77.21358 | 2718 ft | 199 kts | 126° |
| 2026-05-04 23:47 | 38.98457 | -77.19764 | 2710 ft | 209 kts | 126° |
| 2026-05-04 23:47 | 38.97745 | -77.18157 | 2700 ft | 206 kts | 126° |
| 2026-05-04 23:47 | 38.97064 | -77.16598 | 2699 ft | 197 kts | 126° |
| 2026-05-04 23:48 | 38.96328 | -77.15157 | 2709 ft | 189 kts | 140° |
| 2026-05-04 23:48 | 38.95358 | -77.14030 | 2556 ft | 188 kts | 146° |
| 2026-05-04 23:48 | 38.94381 | -77.12949 | 2284 ft | 184 kts | 146° |
| 2026-05-04 23:48 | 38.93422 | -77.11905 | 2051 ft | 174 kts | 152° |
| 2026-05-04 23:49 | 38.92427 | -77.11219 | 1808 ft | 150 kts | 160° |
| 2026-05-04 23:49 | 38.91562 | -77.10598 | 1605 ft | 139 kts | 153° |
| 2026-05-04 23:49 | 38.90874 | -77.09742 | 1370 ft | 137 kts | 127° |
| 2026-05-04 23:49 | 38.90503 | -77.08583 | 1241 ft | 145 kts | 114° |
| 2026-05-04 23:50 | 38.90179 | -77.07385 | 1022 ft | 140 kts | 122° |
| 2026-05-04 23:50 | 38.89589 | -77.06424 | 867 ft | 137 kts | 142° |
| 2026-05-04 23:50 | 38.88880 | -77.05654 | 649 ft | 131 kts | 144° |
| 2026-05-04 23:50 | 38.88159 | -77.04944 | 512 ft | 130 kts | 145° |
| 2026-05-04 23:51 | 38.87674 | -77.04482 | 399 ft | 131 kts | 147° |
| 2026-05-04 23:51 | 38.86856 | -77.04008 | 205 ft | 129 kts | 170° |
| 2026-05-04 23:51 | 38.85966 | -77.03853 | 45 ft | 128 kts | 176° |
| 2026-05-04 23:51 | 38.85209 | -77.03781 | 23 ft | 74 kts | 176° |
| 2026-05-04 23:52 | 38.84920 | -77.03769 | 22 ft | 13 kts | 199° |
| 2026-05-04 23:52 | 38.84879 | -77.03828 | 21 ft | 15 kts | 257° |
| 2026-05-04 23:52 | 38.84955 | -77.03896 | 20 ft | 16 kts | 355° |
| 2026-05-04 23:52 | 38.85037 | -77.03904 | 22 ft | 17 kts | 356° |
| 2026-05-04 23:53 | 38.85147 | -77.03915 | 22 ft | 16 kts | 355° |
| 2026-05-04 23:53 | 38.85266 | -77.03928 | 21 ft | 19 kts | 355° |
| 2026-05-04 23:53 | 38.85339 | -77.03958 | 23 ft | 9 kts | 292° |
| 2026-05-04 23:53 | 38.85333 | -77.04040 | 24 ft | 10 kts | 256° |
| 2026-05-04 23:54 | 38.85348 | -77.04095 | 27 ft | 4 kts | 330° |
| 2026-05-04 23:54 | 38.85359 | -77.04103 | 25 ft | 2 kts | 327° |
| 2026-05-04 23:54 | 38.85370 | -77.04112 | 28 ft | 0 kts | 328° |